sensor_id;sensor_type;location;lat;lon;timestamp;pressure;altitude;pressure_sealevel;temperature
65738;BMP280;52478;51.844;6.582;2022-12-29T00:02:25;99807.44;;;22.81
65738;BMP280;52478;51.844;6.582;2022-12-29T00:04:53;99808.00;;;22.80
65738;BMP280;52478;51.844;6.582;2022-12-29T00:07:20;99797.97;;;22.77
65738;BMP280;52478;51.844;6.582;2022-12-29T00:09:46;99793.13;;;22.77
65738;BMP280;52478;51.844;6.582;2022-12-29T00:12:12;99802.03;;;22.76
65738;BMP280;52478;51.844;6.582;2022-12-29T00:14:39;99796.47;;;22.76
65738;BMP280;52478;51.844;6.582;2022-12-29T00:17:23;99797.78;;;22.75
65738;BMP280;52478;51.844;6.582;2022-12-29T00:19:49;99792.03;;;22.73
65738;BMP280;52478;51.844;6.582;2022-12-29T00:22:35;99781.97;;;22.70
65738;BMP280;52478;51.844;6.582;2022-12-29T00:25:19;99787.56;;;22.70
65738;BMP280;52478;51.844;6.582;2022-12-29T00:28:04;99790.88;;;22.68
65738;BMP280;52478;51.844;6.582;2022-12-29T00:30:48;99798.34;;;22.66
65738;BMP280;52478;51.844;6.582;2022-12-29T00:33:33;99799.63;;;22.65
65738;BMP280;52478;51.844;6.582;2022-12-29T00:36:19;99804.28;;;22.62
65738;BMP280;52478;51.844;6.582;2022-12-29T00:38:49;99811.91;;;22.62
65738;BMP280;52478;51.844;6.582;2022-12-29T00:41:35;99806.16;;;22.60
65738;BMP280;52478;51.844;6.582;2022-12-29T00:44:19;99798.56;;;22.60
65738;BMP280;52478;51.844;6.582;2022-12-29T00:46:45;99787.19;;;22.58
65738;BMP280;52478;51.844;6.582;2022-12-29T00:49:13;99796.13;;;22.57
65738;BMP280;52478;51.844;6.582;2022-12-29T00:51:59;99782.16;;;22.57
65738;BMP280;52478;51.844;6.582;2022-12-29T00:54:28;99775.09;;;22.56
65738;BMP280;52478;51.844;6.582;2022-12-29T00:56:54;99769.34;;;22.54
65738;BMP280;52478;51.844;6.582;2022-12-29T00:59:21;99767.84;;;22.53
65738;BMP280;52478;51.844;6.582;2022-12-29T01:01:49;99755.22;;;22.52
65738;BMP280;52478;51.844;6.582;2022-12-29T01:04:16;99757.06;;;22.49
65738;BMP280;52478;51.844;6.582;2022-12-29T01:06:42;99754.09;;;22.47
65738;BMP280;52478;51.844;6.582;2022-12-29T01:09:10;99748.53;;;22.47
65738;BMP280;52478;51.844;6.582;2022-12-29T01:12:10;99747.75;;;22.47
65738;BMP280;52478;51.844;6.582;2022-12-29T01:14:37;99746.28;;;22.46
65738;BMP280;52478;51.844;6.582;2022-12-29T01:17:04;99739.25;;;22.45
65738;BMP280;52478;51.844;6.582;2022-12-29T01:19:30;99737.72;;;22.44
65738;BMP280;52478;51.844;6.582;2022-12-29T01:21:57;99732.00;;;22.42
65738;BMP280;52478;51.844;6.582;2022-12-29T01:24:23;99722.13;;;22.41
65738;BMP280;52478;51.844;6.582;2022-12-29T01:26:51;99726.22;;;22.40
65738;BMP280;52478;51.844;6.582;2022-12-29T01:29:21;99729.00;;;22.40
65738;BMP280;52478;51.844;6.582;2022-12-29T01:31:47;99725.84;;;22.36
65738;BMP280;52478;51.844;6.582;2022-12-29T01:34:14;99721.75;;;22.37
65738;BMP280;52478;51.844;6.582;2022-12-29T01:36:40;99727.34;;;22.37
65738;BMP280;52478;51.844;6.582;2022-12-29T01:39:07;99736.25;;;22.35
65738;BMP280;52478;51.844;6.582;2022-12-29T01:41:33;99718.97;;;22.37
65738;BMP280;52478;51.844;6.582;2022-12-29T01:44:00;99713.94;;;22.35
65738;BMP280;52478;51.844;6.582;2022-12-29T01:46:31;99717.28;;;22.34
65738;BMP280;52478;51.844;6.582;2022-12-29T01:49:05;99717.28;;;22.34
65738;BMP280;52478;51.844;6.582;2022-12-29T01:51:36;99715.81;;;22.33
65738;BMP280;52478;51.844;6.582;2022-12-29T01:54:08;99725.47;;;22.32
65738;BMP280;52478;51.844;6.582;2022-12-29T01:56:36;99729.59;;;22.31
65738;BMP280;52478;51.844;6.582;2022-12-29T01:59:04;99723.25;;;22.30
65738;BMP280;52478;51.844;6.582;2022-12-29T02:01:33;99716.91;;;22.30
65738;BMP280;52478;51.844;6.582;2022-12-29T02:03:59;99729.38;;;22.29
65738;BMP280;52478;51.844;6.582;2022-12-29T02:06:28;99719.50;;;22.28
65738;BMP280;52478;51.844;6.582;2022-12-29T02:08:56;99708.38;;;22.28
65738;BMP280;52478;51.844;6.582;2022-12-29T02:11:25;99705.97;;;22.25
65738;BMP280;52478;51.844;6.582;2022-12-29T02:13:52;99690.19;;;22.27
65738;BMP280;52478;51.844;6.582;2022-12-29T02:16:29;99698.91;;;22.24
65738;BMP280;52478;51.844;6.582;2022-12-29T02:19:14;99691.09;;;22.22
65738;BMP280;52478;51.844;6.582;2022-12-29T02:22:02;99702.25;;;22.22
65738;BMP280;52478;51.844;6.582;2022-12-29T02:27:51;99703.53;;;22.21
65738;BMP280;52478;51.844;6.582;2022-12-29T02:30:40;99703.34;;;22.19
65738;BMP280;52478;51.844;6.582;2022-12-29T02:33:13;99703.16;;;22.17
65738;BMP280;52478;51.844;6.582;2022-12-29T02:35:48;99705.19;;;22.17
65738;BMP280;52478;51.844;6.582;2022-12-29T02:38:20;99702.41;;;22.17
65738;BMP280;52478;51.844;6.582;2022-12-29T02:40:53;99695.38;;;22.16
65738;BMP280;52478;51.844;6.582;2022-12-29T02:43:24;99695.38;;;22.16
65738;BMP280;52478;51.844;6.582;2022-12-29T02:45:58;99684.22;;;22.16
65738;BMP280;52478;51.844;6.582;2022-12-29T02:48:28;99693.66;;;22.13
65738;BMP280;52478;51.844;6.582;2022-12-29T02:50:59;99702.59;;;22.11
65738;BMP280;52478;51.844;6.582;2022-12-29T02:53:28;99690.16;;;22.12
65738;BMP280;52478;51.844;6.582;2022-12-29T02:56:24;99683.84;;;22.12
65738;BMP280;52478;51.844;6.582;2022-12-29T02:58:50;99665.66;;;22.11
65738;BMP280;52478;51.844;6.582;2022-12-29T03:01:27;99670.47;;;22.10
65738;BMP280;52478;51.844;6.582;2022-12-29T03:04:06;99673.25;;;22.10
65738;BMP280;52478;51.844;6.582;2022-12-29T03:06:43;99670.47;;;22.10
65738;BMP280;52478;51.844;6.582;2022-12-29T03:09:21;99678.66;;;22.08
65738;BMP280;52478;51.844;6.582;2022-12-29T03:11:57;99677.31;;;22.09
65738;BMP280;52478;51.844;6.582;2022-12-29T03:14:44;99656.38;;;22.08
65738;BMP280;52478;51.844;6.582;2022-12-29T03:20:18;99651.34;;;22.07
65738;BMP280;52478;51.844;6.582;2022-12-29T03:22:47;99656.72;;;22.05
65738;BMP280;52478;51.844;6.582;2022-12-29T03:25:18;99642.78;;;22.05
65738;BMP280;52478;51.844;6.582;2022-12-29T03:27:49;99638.13;;;22.07
65738;BMP280;52478;51.844;6.582;2022-12-29T03:30:16;99671.56;;;22.07
65738;BMP280;52478;51.844;6.582;2022-12-29T03:32:46;99637.41;;;22.07
65738;BMP280;52478;51.844;6.582;2022-12-29T03:35:16;99670.09;;;22.06
65738;BMP280;52478;51.844;6.582;2022-12-29T03:37:49;99653.34;;;22.06
65738;BMP280;52478;51.844;6.582;2022-12-29T03:40:17;99653.34;;;22.06
65738;BMP280;52478;51.844;6.582;2022-12-29T03:42:44;99658.94;;;22.06
65738;BMP280;52478;51.844;6.582;2022-12-29T03:45:11;99650.41;;;22.04
65738;BMP280;52478;51.844;6.582;2022-12-29T03:47:37;99635.91;;;22.06
65738;BMP280;52478;51.844;6.582;2022-12-29T03:50:05;99642.22;;;22.06
65738;BMP280;52478;51.844;6.582;2022-12-29T03:52:33;99645.00;;;22.06
65738;BMP280;52478;51.844;6.582;2022-12-29T03:55:00;99636.63;;;22.06
65738;BMP280;52478;51.844;6.582;2022-12-29T03:57:26;99626.97;;;22.07
65738;BMP280;52478;51.844;6.582;2022-12-29T03:59:53;99621.41;;;22.07
65738;BMP280;52478;51.844;6.582;2022-12-29T04:02:19;99631.28;;;22.08
65738;BMP280;52478;51.844;6.582;2022-12-29T04:04:46;99634.81;;;22.09
65738;BMP280;52478;51.844;6.582;2022-12-29T04:07:13;99638.31;;;22.09
65738;BMP280;52478;51.844;6.582;2022-12-29T04:09:40;99642.59;;;22.10
65738;BMP280;52478;51.844;6.582;2022-12-29T04:12:06;99642.59;;;22.10
65738;BMP280;52478;51.844;6.582;2022-12-29T04:14:33;99632.94;;;22.11
65738;BMP280;52478;51.844;6.582;2022-12-29T04:17:00;99623.09;;;22.10
65738;BMP280;52478;51.844;6.582;2022-12-29T04:19:26;99624.56;;;22.11
65738;BMP280;52478;51.844;6.582;2022-12-29T04:21:53;99633.69;;;22.12
65738;BMP280;52478;51.844;6.582;2022-12-29T04:24:20;99632.94;;;22.11
65738;BMP280;52478;51.844;6.582;2022-12-29T04:26:47;99642.06;;;22.12
65738;BMP280;52478;51.844;6.582;2022-12-29T04:29:13;99642.78;;;22.12
65738;BMP280;52478;51.844;6.582;2022-12-29T04:31:40;99643.50;;;22.13
65738;BMP280;52478;51.844;6.582;2022-12-29T04:34:06;99638.50;;;22.11
65738;BMP280;52478;51.844;6.582;2022-12-29T04:36:33;99649.66;;;22.11
65738;BMP280;52478;51.844;6.582;2022-12-29T04:39:00;99637.22;;;22.12
65738;BMP280;52478;51.844;6.582;2022-12-29T04:41:28;99635.72;;;22.11
65738;BMP280;52478;51.844;6.582;2022-12-29T04:43:54;99644.06;;;22.11
65738;BMP280;52478;51.844;6.582;2022-12-29T04:46:21;99649.66;;;22.11
65738;BMP280;52478;51.844;6.582;2022-12-29T04:48:47;99665.66;;;22.11
65738;BMP280;52478;51.844;6.582;2022-12-29T04:51:14;99662.84;;;22.11
65738;BMP280;52478;51.844;6.582;2022-12-29T04:53:40;99674.00;;;22.11
65738;BMP280;52478;51.844;6.582;2022-12-29T04:56:07;99662.09;;;22.10
65738;BMP280;52478;51.844;6.582;2022-12-29T04:58:35;99641.09;;;22.09
65738;BMP280;52478;51.844;6.582;2022-12-29T05:01:02;99655.03;;;22.09
65738;BMP280;52478;51.844;6.582;2022-12-29T05:03:28;99657.81;;;22.09
65738;BMP280;52478;51.844;6.582;2022-12-29T05:05:55;99654.84;;;22.07
65738;BMP280;52478;51.844;6.582;2022-12-29T05:08:22;99653.34;;;22.06
65738;BMP280;52478;51.844;6.582;2022-12-29T05:10:50;99660.41;;;22.07
65738;BMP280;52478;51.844;6.582;2022-12-29T05:13:16;99672.88;;;22.06
65738;BMP280;52478;51.844;6.582;2022-12-29T05:15:47;99670.84;;;22.07
65738;BMP280;52478;51.844;6.582;2022-12-29T05:18:15;99676.94;;;22.05
65738;BMP280;52478;51.844;6.582;2022-12-29T05:20:42;99680.50;;;22.06
65738;BMP280;52478;51.844;6.582;2022-12-29T05:23:08;99674.16;;;22.05
65738;BMP280;52478;51.844;6.582;2022-12-29T05:25:35;99684.00;;;22.06
65738;BMP280;52478;51.844;6.582;2022-12-29T05:28:01;99689.44;;;22.04
65738;BMP280;52478;51.844;6.582;2022-12-29T05:30:27;99692.22;;;22.04
65738;BMP280;52478;51.844;6.582;2022-12-29T05:32:55;99690.16;;;22.05
65738;BMP280;52478;51.844;6.582;2022-12-29T05:35:22;99683.84;;;22.04
65738;BMP280;52478;51.844;6.582;2022-12-29T05:37:48;99693.50;;;22.03
65738;BMP280;52478;51.844;6.582;2022-12-29T05:40:15;99694.06;;;22.02
65738;BMP280;52478;51.844;6.582;2022-12-29T05:42:41;99706.50;;;22.01
65738;BMP280;52478;51.844;6.582;2022-12-29T05:45:09;99696.06;;;22.01
65738;BMP280;52478;51.844;6.582;2022-12-29T05:47:35;99708.72;;;22.02
65738;BMP280;52478;51.844;6.582;2022-12-29T05:50:04;99719.84;;;22.02
65738;BMP280;52478;51.844;6.582;2022-12-29T05:52:30;99726.94;;;22.03
65738;BMP280;52478;51.844;6.582;2022-12-29T05:54:57;99740.50;;;22.07
65738;BMP280;52478;51.844;6.582;2022-12-29T05:57:23;99742.53;;;22.06
65738;BMP280;52478;51.844;6.582;2022-12-29T05:59:50;99741.44;;;22.09
65738;BMP280;52478;51.844;6.582;2022-12-29T06:02:16;99755.56;;;22.11
65738;BMP280;52478;51.844;6.582;2022-12-29T06:04:43;99762.81;;;22.14
65738;BMP280;52478;51.844;6.582;2022-12-29T06:07:11;99757.41;;;22.16
65738;BMP280;52478;51.844;6.582;2022-12-29T06:09:37;99760.41;;;22.18
65738;BMP280;52478;51.844;6.582;2022-12-29T06:12:04;99771.19;;;22.22
65738;BMP280;52478;51.844;6.582;2022-12-29T06:14:31;99767.84;;;22.23
65738;BMP280;52478;51.844;6.582;2022-12-29T06:16:58;99770.25;;;22.27
65738;BMP280;52478;51.844;6.582;2022-12-29T06:19:25;99758.53;;;22.28
65738;BMP280;52478;51.844;6.582;2022-12-29T06:21:51;99755.94;;;22.30
65738;BMP280;52478;51.844;6.582;2022-12-29T06:24:20;99760.94;;;22.31
65738;BMP280;52478;51.844;6.582;2022-12-29T06:26:46;99761.91;;;22.34
65738;BMP280;52478;51.844;6.582;2022-12-29T06:29:13;99754.47;;;22.36
65738;BMP280;52478;51.844;6.582;2022-12-29T06:31:42;99765.06;;;22.38
65738;BMP280;52478;51.844;6.582;2022-12-29T06:34:08;99766.75;;;22.41
65738;BMP280;52478;51.844;6.582;2022-12-29T06:36:35;99768.25;;;22.42
65738;BMP280;52478;51.844;6.582;2022-12-29T06:39:01;99780.84;;;22.43
65738;BMP280;52478;51.844;6.582;2022-12-29T06:41:29;99779.00;;;22.45
65738;BMP280;52478;51.844;6.582;2022-12-29T06:43:56;99788.28;;;22.48
65738;BMP280;52478;51.844;6.582;2022-12-29T06:46:23;99784.97;;;22.49
65738;BMP280;52478;51.844;6.582;2022-12-29T06:48:50;99781.22;;;22.47
65738;BMP280;52478;51.844;6.582;2022-12-29T06:51:16;99783.47;;;22.48
65738;BMP280;52478;51.844;6.582;2022-12-29T06:53:43;99784.25;;;22.49
65738;BMP280;52478;51.844;6.582;2022-12-29T06:56:09;99782.72;;;22.48
65738;BMP280;52478;51.844;6.582;2022-12-29T06:58:37;99782.91;;;22.50
65738;BMP280;52478;51.844;6.582;2022-12-29T07:01:04;99791.28;;;22.50
65738;BMP280;52478;51.844;6.582;2022-12-29T07:03:30;99786.44;;;22.50
65738;BMP280;52478;51.844;6.582;2022-12-29T07:05:57;99784.41;;;22.51
65738;BMP280;52478;51.844;6.582;2022-12-29T07:08:23;99782.38;;;22.51
65738;BMP280;52478;51.844;6.582;2022-12-29T07:10:50;99785.31;;;22.53
65738;BMP280;52478;51.844;6.582;2022-12-29T07:13:16;99785.50;;;22.55
65738;BMP280;52478;51.844;6.582;2022-12-29T07:15:44;99788.88;;;22.54
65738;BMP280;52478;51.844;6.582;2022-12-29T07:18:11;99793.88;;;22.55
65738;BMP280;52478;51.844;6.582;2022-12-29T07:20:37;99793.34;;;22.57
65738;BMP280;52478;51.844;6.582;2022-12-29T07:23:04;99786.44;;;22.58
65738;BMP280;52478;51.844;6.582;2022-12-29T07:25:30;99784.97;;;22.57
65738;BMP280;52478;51.844;6.582;2022-12-29T07:27:57;99786.66;;;22.60
65738;BMP280;52478;51.844;6.582;2022-12-29T07:30:24;99794.25;;;22.59
65738;BMP280;52478;51.844;6.582;2022-12-29T07:32:51;99792.03;;;22.58
65738;BMP280;52478;51.844;6.582;2022-12-29T07:35:18;99792.22;;;22.60
65738;BMP280;52478;51.844;6.582;2022-12-29T07:37:45;99785.31;;;22.61
65738;BMP280;52478;51.844;6.582;2022-12-29T07:40:11;99803.53;;;22.62
65738;BMP280;52478;51.844;6.582;2022-12-29T07:42:38;99800.22;;;22.63
65738;BMP280;52478;51.844;6.582;2022-12-29T07:45:05;99806.53;;;22.64
65738;BMP280;52478;51.844;6.582;2022-12-29T07:47:32;99805.06;;;22.63
65738;BMP280;52478;51.844;6.582;2022-12-29T07:50:00;99809.34;;;22.64
65738;BMP280;52478;51.844;6.582;2022-12-29T07:52:26;99802.44;;;22.65
65738;BMP280;52478;51.844;6.582;2022-12-29T07:54:53;99796.84;;;22.65
65738;BMP280;52478;51.844;6.582;2022-12-29T07:57:19;99808.22;;;22.67
65738;BMP280;52478;51.844;6.582;2022-12-29T17:16:47;100254.94;;;21.69
65738;BMP280;52478;51.844;6.582;2022-12-29T17:19:16;100254.94;;;21.69
65738;BMP280;52478;51.844;6.582;2022-12-29T17:21:43;100264.03;;;21.69
65738;BMP280;52478;51.844;6.582;2022-12-29T17:24:15;100277.97;;;21.69
65738;BMP280;52478;51.844;6.582;2022-12-29T17:26:42;100277.63;;;21.73
65738;BMP280;52478;51.844;6.582;2022-12-29T17:29:12;100274.31;;;21.74
65738;BMP280;52478;51.844;6.582;2022-12-29T17:31:42;100288.47;;;21.76
65738;BMP280;52478;51.844;6.582;2022-12-29T17:34:11;100283.84;;;21.79
65738;BMP280;52478;51.844;6.582;2022-12-29T17:36:39;100294.66;;;21.82
65738;BMP280;52478;51.844;6.582;2022-12-29T17:39:05;100300.00;;;21.80
65738;BMP280;52478;51.844;6.582;2022-12-29T17:41:33;100315.88;;;21.85
65738;BMP280;52478;51.844;6.582;2022-12-29T17:44:02;100312.00;;;21.88
65738;BMP280;52478;51.844;6.582;2022-12-29T17:46:28;100302.34;;;21.89
65738;BMP280;52478;51.844;6.582;2022-12-29T17:48:55;100302.03;;;21.93
65738;BMP280;52478;51.844;6.582;2022-12-29T17:51:23;100314.66;;;21.94
65738;BMP280;52478;51.844;6.582;2022-12-29T17:53:50;100307.25;;;21.96
65738;BMP280;52478;51.844;6.582;2022-12-29T17:56:17;100297.59;;;21.97
65738;BMP280;52478;51.844;6.582;2022-12-29T17:58:44;100312.50;;;22.00
65738;BMP280;52478;51.844;6.582;2022-12-29T18:01:12;100311.94;;;22.01
65738;BMP280;52478;51.844;6.582;2022-12-29T18:03:39;100317.00;;;22.03
65738;BMP280;52478;51.844;6.582;2022-12-29T18:06:08;100324.06;;;22.04
65738;BMP280;52478;51.844;6.582;2022-12-29T18:08:39;100334.88;;;22.07
65738;BMP280;52478;51.844;6.582;2022-12-29T18:11:18;100332.09;;;22.07
65738;BMP280;52478;51.844;6.582;2022-12-29T18:13:45;100322.63;;;22.10
65738;BMP280;52478;51.844;6.582;2022-12-29T18:16:12;100320.63;;;22.11
65738;BMP280;52478;51.844;6.582;2022-12-29T18:18:39;100338.28;;;22.13
65738;BMP280;52478;51.844;6.582;2022-12-29T18:21:05;100318.78;;;22.13
65738;BMP280;52478;51.844;6.582;2022-12-29T18:23:33;100335.72;;;22.15
65738;BMP280;52478;51.844;6.582;2022-12-29T18:26:03;100338.72;;;22.17
65738;BMP280;52478;51.844;6.582;2022-12-29T18:28:30;100344.66;;;22.21
65738;BMP280;52478;51.844;6.582;2022-12-29T18:30:59;100346.19;;;22.22
65738;BMP280;52478;51.844;6.582;2022-12-29T18:33:27;100350.25;;;22.21
65738;BMP280;52478;51.844;6.582;2022-12-29T18:35:55;100357.53;;;22.24
65738;BMP280;52478;51.844;6.582;2022-12-29T18:38:22;100344.56;;;22.27
65738;BMP280;52478;51.844;6.582;2022-12-29T18:40:49;100363.53;;;22.28
65738;BMP280;52478;51.844;6.582;2022-12-29T18:43:17;100357.44;;;22.29
65738;BMP280;52478;51.844;6.582;2022-12-29T18:45:45;100351.31;;;22.31
65738;BMP280;52478;51.844;6.582;2022-12-29T18:48:12;100361.91;;;22.32
65738;BMP280;52478;51.844;6.582;2022-12-29T18:50:38;100365.66;;;22.35
65738;BMP280;52478;51.844;6.582;2022-12-29T18:53:05;100365.66;;;22.35
65738;BMP280;52478;51.844;6.582;2022-12-29T18:55:31;100361.59;;;22.36
65738;BMP280;52478;51.844;6.582;2022-12-29T18:57:58;100368.66;;;22.37
65738;BMP280;52478;51.844;6.582;2022-12-29T19:00:26;100365.44;;;22.33
65738;BMP280;52478;51.844;6.582;2022-12-29T19:02:52;100377.97;;;22.39
65738;BMP280;52478;51.844;6.582;2022-12-29T19:05:21;100378.72;;;22.40
65738;BMP280;52478;51.844;6.582;2022-12-29T19:07:48;100383.03;;;22.41
65738;BMP280;52478;51.844;6.582;2022-12-29T19:10:15;100381.53;;;22.40
65738;BMP280;52478;51.844;6.582;2022-12-29T19:12:42;100372.81;;;22.43
65738;BMP280;52478;51.844;6.582;2022-12-29T19:15:13;100381.72;;;22.42
65738;BMP280;52478;51.844;6.582;2022-12-29T19:17:44;100382.66;;;22.44
65738;BMP280;52478;51.844;6.582;2022-12-29T19:20:24;100387.50;;;22.44
65738;BMP280;52478;51.844;6.582;2022-12-29T19:22:51;100391.81;;;22.45
65738;BMP280;52478;51.844;6.582;2022-12-29T19:25:18;100392.75;;;22.47
65738;BMP280;52478;51.844;6.582;2022-12-29T19:27:44;100392.75;;;22.47
65738;BMP280;52478;51.844;6.582;2022-12-29T19:30:12;100389.19;;;22.47
65738;BMP280;52478;51.844;6.582;2022-12-29T19:32:39;100394.25;;;22.48
65738;BMP280;52478;51.844;6.582;2022-12-29T19:35:08;100402.63;;;22.48
65738;BMP280;52478;51.844;6.582;2022-12-29T19:37:35;100397.81;;;22.49
65738;BMP280;52478;51.844;6.582;2022-12-29T19:40:05;100416.00;;;22.50
65738;BMP280;52478;51.844;6.582;2022-12-29T19:42:32;100410.44;;;22.50
65738;BMP280;52478;51.844;6.582;2022-12-29T19:44:59;100411.16;;;22.50
65738;BMP280;52478;51.844;6.582;2022-12-29T19:47:26;100416.97;;;22.52
65738;BMP280;52478;51.844;6.582;2022-12-29T19:49:53;100424.59;;;22.52
65738;BMP280;52478;51.844;6.582;2022-12-29T19:52:21;100430.16;;;22.52
65738;BMP280;52478;51.844;6.582;2022-12-29T19:54:47;100427.59;;;22.54
65738;BMP280;52478;51.844;6.582;2022-12-29T19:57:14;100431.88;;;22.55
65738;BMP280;52478;51.844;6.582;2022-12-29T19:59:40;100440.97;;;22.55
65738;BMP280;52478;51.844;6.582;2022-12-29T20:02:16;100433.03;;;22.59
65738;BMP280;52478;51.844;6.582;2022-12-29T20:04:43;100432.47;;;22.61
65738;BMP280;52478;51.844;6.582;2022-12-29T20:07:10;100425.94;;;22.58
65738;BMP280;52478;51.844;6.582;2022-12-29T20:09:38;100420.94;;;22.57
65738;BMP280;52478;51.844;6.582;2022-12-29T20:12:05;100433.25;;;22.61
65738;BMP280;52478;51.844;6.582;2022-12-29T20:14:32;100431.75;;;22.60
65738;BMP280;52478;51.844;6.582;2022-12-29T20:16:58;100429.91;;;22.63
65738;BMP280;52478;51.844;6.582;2022-12-29T20:19:25;100442.59;;;22.64
65738;BMP280;52478;51.844;6.582;2022-12-29T20:21:51;100434.22;;;22.64
65738;BMP280;52478;51.844;6.582;2022-12-29T20:24:18;100437.00;;;22.64
65738;BMP280;52478;51.844;6.582;2022-12-29T20:26:46;100436.25;;;22.63
65738;BMP280;52478;51.844;6.582;2022-12-29T20:29:13;100427.31;;;22.65
65738;BMP280;52478;51.844;6.582;2022-12-29T20:31:40;100435.69;;;22.65
65738;BMP280;52478;51.844;6.582;2022-12-29T20:34:07;100437.41;;;22.68
65738;BMP280;52478;51.844;6.582;2022-12-29T20:36:37;100436.66;;;22.67
65738;BMP280;52478;51.844;6.582;2022-12-29T20:39:07;100439.66;;;22.69
65738;BMP280;52478;51.844;6.582;2022-12-29T20:41:34;100436.88;;;22.69
65738;BMP280;52478;51.844;6.582;2022-12-29T20:44:02;100453.03;;;22.71
65738;BMP280;52478;51.844;6.582;2022-12-29T20:46:29;100455.28;;;22.72
65738;BMP280;52478;51.844;6.582;2022-12-29T20:48:56;100458.06;;;22.72
65738;BMP280;52478;51.844;6.582;2022-12-29T20:51:23;100469.78;;;22.71
65738;BMP280;52478;51.844;6.582;2022-12-29T20:53:51;100466.25;;;22.70
65738;BMP280;52478;51.844;6.582;2022-12-29T20:56:19;100482.25;;;22.70
65738;BMP280;52478;51.844;6.582;2022-12-29T20:58:46;100469.41;;;22.67
65738;BMP280;52478;51.844;6.582;2022-12-29T21:01:18;100469.41;;;22.67
65738;BMP280;52478;51.844;6.582;2022-12-29T21:03:45;100481.28;;;22.67
65738;BMP280;52478;51.844;6.582;2022-12-29T21:06:11;100470.66;;;22.66
65738;BMP280;52478;51.844;6.582;2022-12-29T21:08:38;100469.72;;;22.63
65738;BMP280;52478;51.844;6.582;2022-12-29T21:11:05;100480.31;;;22.65
65738;BMP280;52478;51.844;6.582;2022-12-29T21:13:33;100481.63;;;22.64
65738;BMP280;52478;51.844;6.582;2022-12-29T21:16:01;100485.91;;;22.65
65738;BMP280;52478;51.844;6.582;2022-12-29T21:18:30;100492.03;;;22.63
65738;BMP280;52478;51.844;6.582;2022-12-29T21:20:58;100484.44;;;22.64
65738;BMP280;52478;51.844;6.582;2022-12-29T21:23:25;100485.16;;;22.64
65738;BMP280;52478;51.844;6.582;2022-12-29T21:25:53;100484.19;;;22.62
65738;BMP280;52478;51.844;6.582;2022-12-29T21:28:20;100495.34;;;22.62
65738;BMP280;52478;51.844;6.582;2022-12-29T21:30:48;100500.19;;;22.61
65738;BMP280;52478;51.844;6.582;2022-12-29T21:33:14;100503.72;;;22.62
65738;BMP280;52478;51.844;6.582;2022-12-29T21:35:42;100497.19;;;22.59
65738;BMP280;52478;51.844;6.582;2022-12-29T21:38:09;100503.53;;;22.60
65738;BMP280;52478;51.844;6.582;2022-12-29T21:40:37;100496.25;;;22.57
65738;BMP280;52478;51.844;6.582;2022-12-29T21:43:04;100506.13;;;22.58
65738;BMP280;52478;51.844;6.582;2022-12-29T21:45:31;100504.63;;;22.57
65738;BMP280;52478;51.844;6.582;2022-12-29T21:47:58;100504.78;;;22.38
65738;BMP280;52478;51.844;6.582;2022-12-29T21:50:46;100496.09;;;22.16
65738;BMP280;52478;51.844;6.582;2022-12-29T21:53:32;100507.47;;;22.18
65738;BMP280;52478;51.844;6.582;2022-12-29T21:56:06;100510.44;;;22.20
65738;BMP280;52478;51.844;6.582;2022-12-29T21:58:34;100521.00;;;22.14
65738;BMP280;52478;51.844;6.582;2022-12-29T22:01:18;100524.53;;;22.15
65738;BMP280;52478;51.844;6.582;2022-12-29T22:04:02;100530.84;;;22.15
65738;BMP280;52478;51.844;6.582;2022-12-29T22:06:48;100528.28;;;22.17
65738;BMP280;52478;51.844;6.582;2022-12-29T22:09:33;100543.47;;;22.16
65738;BMP280;52478;51.844;6.582;2022-12-29T22:12:17;100545.00;;;22.17
65738;BMP280;52478;51.844;6.582;2022-12-29T22:15:02;100550.88;;;22.14
65738;BMP280;52478;51.844;6.582;2022-12-29T22:17:29;100555.22;;;22.15
65738;BMP280;52478;51.844;6.582;2022-12-29T22:19:55;100555.28;;;22.09
65738;BMP280;52478;51.844;6.582;2022-12-29T22:22:24;100555.72;;;22.13
65738;BMP280;52478;51.844;6.582;2022-12-29T22:24:51;100555.94;;;22.02
65738;BMP280;52478;51.844;6.582;2022-12-29T22:27:17;100567.72;;;21.95
65738;BMP280;52478;51.844;6.582;2022-12-29T22:29:44;100561.41;;;21.95
65738;BMP280;52478;51.844;6.582;2022-12-29T22:32:10;100570.28;;;21.93
65738;BMP280;52478;51.844;6.582;2022-12-29T22:34:37;100563.84;;;21.98
65738;BMP280;52478;51.844;6.582;2022-12-29T22:37:03;100571.81;;;21.94
65738;BMP280;52478;51.844;6.582;2022-12-29T22:39:31;100573.41;;;21.90
65738;BMP280;52478;51.844;6.582;2022-12-29T22:41:58;100588.38;;;21.87
65738;BMP280;52478;51.844;6.582;2022-12-29T22:44:25;100590.44;;;21.86
65738;BMP280;52478;51.844;6.582;2022-12-29T22:46:51;100586.47;;;21.82
65738;BMP280;52478;51.844;6.582;2022-12-29T22:49:17;100591.19;;;21.74
65738;BMP280;52478;51.844;6.582;2022-12-29T22:51:44;100580.78;;;21.74
65738;BMP280;52478;51.844;6.582;2022-12-29T22:54:10;100598.00;;;21.73
65738;BMP280;52478;51.844;6.582;2022-12-29T22:56:38;100599.84;;;21.70
65738;BMP280;52478;51.844;6.582;2022-12-29T22:59:07;100604.13;;;21.71
65738;BMP280;52478;51.844;6.582;2022-12-29T23:01:33;100604.13;;;21.71
65738;BMP280;52478;51.844;6.582;2022-12-29T23:04:00;100605.19;;;21.68
65738;BMP280;52478;51.844;6.582;2022-12-29T23:06:26;100611.81;;;21.65
65738;BMP280;52478;51.844;6.582;2022-12-29T23:08:55;100620.69;;;21.64
65738;BMP280;52478;51.844;6.582;2022-12-29T23:11:21;100622.75;;;21.63
65738;BMP280;52478;51.844;6.582;2022-12-29T23:13:49;100626.84;;;21.62
65738;BMP280;52478;51.844;6.582;2022-12-29T23:16:16;100634.16;;;21.60
65738;BMP280;52478;51.844;6.582;2022-12-29T23:18:44;100642.34;;;21.58
65738;BMP280;52478;51.844;6.582;2022-12-29T23:21:12;100639.44;;;21.63
65738;BMP280;52478;51.844;6.582;2022-12-29T23:23:39;100648.97;;;21.55
65738;BMP280;52478;51.844;6.582;2022-12-29T23:26:23;100653.78;;;21.54
65738;BMP280;52478;51.844;6.582;2022-12-29T23:28:53;100662.72;;;21.47
65738;BMP280;52478;51.844;6.582;2022-12-29T23:31:20;100665.31;;;21.45
65738;BMP280;52478;51.844;6.582;2022-12-29T23:33:47;100671.94;;;21.42
65738;BMP280;52478;51.844;6.582;2022-12-29T23:36:14;100679.75;;;21.44
65738;BMP280;52478;51.844;6.582;2022-12-29T23:38:41;100670.75;;;21.38